sensor_id;sensor_type;location;lat;lon;timestamp;P1;durP1;ratioP1;P2;durP2;ratioP2
37069;SDS011;22984;48.862;9.320;2022-07-22T00:01:22;7.70;;;7.10;;
37069;SDS011;22984;48.862;9.320;2022-07-22T00:03:48;7.90;;;7.30;;
37069;SDS011;22984;48.862;9.320;2022-07-22T00:06:14;7.90;;;7.20;;
37069;SDS011;22984;48.862;9.320;2022-07-22T00:08:41;8.85;;;7.95;;
37069;SDS011;22984;48.862;9.320;2022-07-22T00:11:07;10.75;;;7.63;;
37069;SDS011;22984;48.862;9.320;2022-07-22T00:13:33;8.52;;;7.05;;
37069;SDS011;22984;48.862;9.320;2022-07-22T00:15:59;9.80;;;6.90;;
37069;SDS011;22984;48.862;9.320;2022-07-22T00:18:25;8.38;;;7.75;;
37069;SDS011;22984;48.862;9.320;2022-07-22T00:20:51;11.90;;;7.85;;
37069;SDS011;22984;48.862;9.320;2022-07-22T00:23:17;7.65;;;7.03;;
37069;SDS011;22984;48.862;9.320;2022-07-22T00:25:43;8.55;;;7.85;;
37069;SDS011;22984;48.862;9.320;2022-07-22T00:28:09;9.40;;;8.40;;
37069;SDS011;22984;48.862;9.320;2022-07-22T00:30:35;10.85;;;8.32;;
37069;SDS011;22984;48.862;9.320;2022-07-22T00:33:02;9.38;;;8.35;;
37069;SDS011;22984;48.862;9.320;2022-07-22T00:35:28;9.40;;;8.00;;
37069;SDS011;22984;48.862;9.320;2022-07-22T00:37:54;8.90;;;7.65;;
37069;SDS011;22984;48.862;9.320;2022-07-22T00:40:20;8.65;;;7.95;;
37069;SDS011;22984;48.862;9.320;2022-07-22T00:42:46;8.82;;;8.10;;
37069;SDS011;22984;48.862;9.320;2022-07-22T00:45:13;9.93;;;8.15;;
37069;SDS011;22984;48.862;9.320;2022-07-22T00:47:39;11.38;;;7.53;;
37069;SDS011;22984;48.862;9.320;2022-07-22T00:50:05;8.73;;;7.97;;
37069;SDS011;22984;48.862;9.320;2022-07-22T00:52:32;7.70;;;6.93;;
37069;SDS011;22984;48.862;9.320;2022-07-22T00:54:58;11.87;;;7.93;;
37069;SDS011;22984;48.862;9.320;2022-07-22T00:57:25;10.83;;;7.50;;
37069;SDS011;22984;48.862;9.320;2022-07-22T00:59:51;15.23;;;9.30;;
37069;SDS011;22984;48.862;9.320;2022-07-22T01:02:17;9.40;;;8.27;;
37069;SDS011;22984;48.862;9.320;2022-07-22T01:04:43;7.88;;;7.22;;
37069;SDS011;22984;48.862;9.320;2022-07-22T01:07:10;8.77;;;6.97;;
37069;SDS011;22984;48.862;9.320;2022-07-22T01:09:36;7.82;;;7.13;;
37069;SDS011;22984;48.862;9.320;2022-07-22T01:12:02;7.95;;;7.28;;
37069;SDS011;22984;48.862;9.320;2022-07-22T01:14:28;8.60;;;7.80;;
37069;SDS011;22984;48.862;9.320;2022-07-22T01:16:55;7.80;;;7.20;;
37069;SDS011;22984;48.862;9.320;2022-07-22T01:19:21;9.02;;;7.82;;
37069;SDS011;22984;48.862;9.320;2022-07-22T01:21:47;10.55;;;8.63;;
37069;SDS011;22984;48.862;9.320;2022-07-22T01:24:13;9.02;;;8.18;;
37069;SDS011;22984;48.862;9.320;2022-07-22T01:26:39;8.75;;;7.68;;
37069;SDS011;22984;48.862;9.320;2022-07-22T01:29:05;8.10;;;7.47;;
37069;SDS011;22984;48.862;9.320;2022-07-22T01:31:32;12.60;;;8.63;;
37069;SDS011;22984;48.862;9.320;2022-07-22T01:33:58;8.43;;;7.82;;
37069;SDS011;22984;48.862;9.320;2022-07-22T01:36:25;8.87;;;8.20;;
37069;SDS011;22984;48.862;9.320;2022-07-22T01:38:51;9.27;;;8.38;;
37069;SDS011;22984;48.862;9.320;2022-07-22T01:41:17;9.88;;;8.45;;
37069;SDS011;22984;48.862;9.320;2022-07-22T01:43:43;9.45;;;8.52;;
37069;SDS011;22984;48.862;9.320;2022-07-22T01:46:09;8.57;;;7.88;;
37069;SDS011;22984;48.862;9.320;2022-07-22T01:48:35;13.07;;;8.18;;
37069;SDS011;22984;48.862;9.320;2022-07-22T01:51:01;9.18;;;8.23;;
37069;SDS011;22984;48.862;9.320;2022-07-22T01:53:27;9.23;;;8.15;;
37069;SDS011;22984;48.862;9.320;2022-07-22T01:55:53;7.72;;;7.13;;
37069;SDS011;22984;48.862;9.320;2022-07-22T01:58:19;8.40;;;7.60;;
37069;SDS011;22984;48.862;9.320;2022-07-22T02:00:46;9.73;;;8.13;;
37069;SDS011;22984;48.862;9.320;2022-07-22T02:03:12;9.13;;;8.30;;
37069;SDS011;22984;48.862;9.320;2022-07-22T02:05:38;9.07;;;8.20;;
37069;SDS011;22984;48.862;9.320;2022-07-22T02:08:06;9.38;;;7.93;;
37069;SDS011;22984;48.862;9.320;2022-07-22T02:10:32;9.02;;;8.23;;
37069;SDS011;22984;48.862;9.320;2022-07-22T02:12:59;8.40;;;7.70;;
37069;SDS011;22984;48.862;9.320;2022-07-22T02:15:25;8.67;;;7.83;;
37069;SDS011;22984;48.862;9.320;2022-07-22T02:17:51;8.68;;;7.78;;
37069;SDS011;22984;48.862;9.320;2022-07-22T02:20:18;9.05;;;7.57;;
37069;SDS011;22984;48.862;9.320;2022-07-22T02:22:44;8.70;;;7.85;;
37069;SDS011;22984;48.862;9.320;2022-07-22T02:25:10;11.03;;;8.63;;
37069;SDS011;22984;48.862;9.320;2022-07-22T02:27:36;9.20;;;8.40;;
37069;SDS011;22984;48.862;9.320;2022-07-22T02:30:03;9.70;;;7.93;;
37069;SDS011;22984;48.862;9.320;2022-07-22T02:32:29;8.63;;;7.78;;
37069;SDS011;22984;48.862;9.320;2022-07-22T02:34:56;9.43;;;8.38;;
37069;SDS011;22984;48.862;9.320;2022-07-22T02:37:22;9.30;;;8.30;;
37069;SDS011;22984;48.862;9.320;2022-07-22T02:39:48;10.02;;;8.35;;
37069;SDS011;22984;48.862;9.320;2022-07-22T02:42:14;8.73;;;8.00;;
37069;SDS011;22984;48.862;9.320;2022-07-22T02:44:40;11.20;;;8.90;;
37069;SDS011;22984;48.862;9.320;2022-07-22T02:47:06;9.60;;;8.60;;
37069;SDS011;22984;48.862;9.320;2022-07-22T02:49:32;9.77;;;8.95;;
37069;SDS011;22984;48.862;9.320;2022-07-22T02:51:58;10.30;;;9.33;;
37069;SDS011;22984;48.862;9.320;2022-07-22T02:54:24;10.87;;;9.97;;
37069;SDS011;22984;48.862;9.320;2022-07-22T02:56:50;10.45;;;9.55;;
37069;SDS011;22984;48.862;9.320;2022-07-22T02:59:16;12.30;;;9.52;;
37069;SDS011;22984;48.862;9.320;2022-07-22T03:01:42;10.43;;;9.43;;
37069;SDS011;22984;48.862;9.320;2022-07-22T03:04:08;10.95;;;9.10;;
37069;SDS011;22984;48.862;9.320;2022-07-22T03:06:34;10.60;;;9.52;;
37069;SDS011;22984;48.862;9.320;2022-07-22T03:09:00;11.57;;;9.60;;
37069;SDS011;22984;48.862;9.320;2022-07-22T03:11:27;13.82;;;9.07;;
37069;SDS011;22984;48.862;9.320;2022-07-22T03:13:53;12.93;;;8.70;;
37069;SDS011;22984;48.862;9.320;2022-07-22T03:16:19;9.55;;;8.85;;
37069;SDS011;22984;48.862;9.320;2022-07-22T03:18:45;12.82;;;8.45;;
37069;SDS011;22984;48.862;9.320;2022-07-22T03:21:11;10.38;;;8.13;;
37069;SDS011;22984;48.862;9.320;2022-07-22T03:23:37;13.18;;;10.30;;
37069;SDS011;22984;48.862;9.320;2022-07-22T03:26:03;10.70;;;8.77;;
37069;SDS011;22984;48.862;9.320;2022-07-22T03:28:29;8.90;;;8.17;;
37069;SDS011;22984;48.862;9.320;2022-07-22T03:30:55;12.18;;;9.43;;
37069;SDS011;22984;48.862;9.320;2022-07-22T03:33:21;13.80;;;9.40;;
37069;SDS011;22984;48.862;9.320;2022-07-22T03:35:47;11.57;;;9.65;;
37069;SDS011;22984;48.862;9.320;2022-07-22T03:38:13;11.27;;;10.30;;
37069;SDS011;22984;48.862;9.320;2022-07-22T03:40:39;14.13;;;11.95;;
37069;SDS011;22984;48.862;9.320;2022-07-22T03:43:05;13.95;;;12.55;;
37069;SDS011;22984;48.862;9.320;2022-07-22T03:45:31;14.70;;;11.90;;
37069;SDS011;22984;48.862;9.320;2022-07-22T03:47:57;12.65;;;11.65;;
37069;SDS011;22984;48.862;9.320;2022-07-22T03:50:24;12.25;;;11.35;;
37069;SDS011;22984;48.862;9.320;2022-07-22T03:52:50;11.93;;;11.02;;
37069;SDS011;22984;48.862;9.320;2022-07-22T03:55:16;13.27;;;11.98;;
37069;SDS011;22984;48.862;9.320;2022-07-22T03:57:42;13.18;;;11.82;;
37069;SDS011;22984;48.862;9.320;2022-07-22T04:00:08;13.18;;;11.85;;
37069;SDS011;22984;48.862;9.320;2022-07-22T04:02:34;14.27;;;11.63;;
37069;SDS011;22984;48.862;9.320;2022-07-22T04:05:00;14.50;;;11.77;;
37069;SDS011;22984;48.862;9.320;2022-07-22T04:07:26;14.30;;;11.43;;
37069;SDS011;22984;48.862;9.320;2022-07-22T04:09:52;12.50;;;11.27;;
37069;SDS011;22984;48.862;9.320;2022-07-22T04:12:29;13.00;;;11.68;;
37069;SDS011;22984;48.862;9.320;2022-07-22T04:14:55;11.10;;;10.35;;
37069;SDS011;22984;48.862;9.320;2022-07-22T04:17:21;13.20;;;10.80;;
37069;SDS011;22984;48.862;9.320;2022-07-22T04:19:47;11.05;;;9.93;;
37069;SDS011;22984;48.862;9.320;2022-07-22T04:22:13;11.65;;;10.10;;
37069;SDS011;22984;48.862;9.320;2022-07-22T04:24:39;11.13;;;10.10;;
37069;SDS011;22984;48.862;9.320;2022-07-22T04:27:05;13.10;;;10.40;;
37069;SDS011;22984;48.862;9.320;2022-07-22T04:29:31;15.18;;;10.63;;
37069;SDS011;22984;48.862;9.320;2022-07-22T04:31:57;11.60;;;10.60;;
37069;SDS011;22984;48.862;9.320;2022-07-22T04:34:23;11.07;;;10.00;;
37069;SDS011;22984;48.862;9.320;2022-07-22T04:36:49;10.53;;;9.73;;
37069;SDS011;22984;48.862;9.320;2022-07-22T04:39:15;10.93;;;9.80;;
37069;SDS011;22984;48.862;9.320;2022-07-22T04:41:43;13.40;;;10.45;;
37069;SDS011;22984;48.862;9.320;2022-07-22T04:44:09;12.32;;;11.20;;
37069;SDS011;22984;48.862;9.320;2022-07-22T04:46:35;11.10;;;10.20;;
37069;SDS011;22984;48.862;9.320;2022-07-22T04:49:01;14.02;;;11.15;;
37069;SDS011;22984;48.862;9.320;2022-07-22T04:51:27;10.90;;;10.00;;
37069;SDS011;22984;48.862;9.320;2022-07-22T04:53:54;11.48;;;10.27;;
37069;SDS011;22984;48.862;9.320;2022-07-22T04:56:20;11.27;;;10.27;;
37069;SDS011;22984;48.862;9.320;2022-07-22T04:58:46;12.07;;;10.95;;
37069;SDS011;22984;48.862;9.320;2022-07-22T05:01:12;11.00;;;9.80;;
37069;SDS011;22984;48.862;9.320;2022-07-22T05:03:39;11.20;;;10.20;;
37069;SDS011;22984;48.862;9.320;2022-07-22T05:06:05;14.82;;;10.60;;
37069;SDS011;22984;48.862;9.320;2022-07-22T05:08:31;13.30;;;11.80;;
37069;SDS011;22984;48.862;9.320;2022-07-22T05:10:57;14.15;;;12.90;;
37069;SDS011;22984;48.862;9.320;2022-07-22T05:13:23;13.85;;;12.40;;
37069;SDS011;22984;48.862;9.320;2022-07-22T05:15:49;16.92;;;12.00;;
37069;SDS011;22984;48.862;9.320;2022-07-22T05:18:15;14.02;;;12.55;;
37069;SDS011;22984;48.862;9.320;2022-07-22T05:20:41;13.38;;;12.15;;
37069;SDS011;22984;48.862;9.320;2022-07-22T05:23:07;13.07;;;11.98;;
37069;SDS011;22984;48.862;9.320;2022-07-22T05:25:33;14.17;;;12.17;;
37069;SDS011;22984;48.862;9.320;2022-07-22T05:28:00;12.60;;;11.50;;
37069;SDS011;22984;48.862;9.320;2022-07-22T05:30:26;12.77;;;11.57;;
37069;SDS011;22984;48.862;9.320;2022-07-22T05:32:52;12.35;;;11.20;;
37069;SDS011;22984;48.862;9.320;2022-07-22T05:35:18;12.48;;;11.18;;
37069;SDS011;22984;48.862;9.320;2022-07-22T05:37:45;13.20;;;11.80;;
37069;SDS011;22984;48.862;9.320;2022-07-22T05:40:11;13.32;;;12.02;;
37069;SDS011;22984;48.862;9.320;2022-07-22T05:42:37;13.48;;;11.88;;
37069;SDS011;22984;48.862;9.320;2022-07-22T05:45:03;13.25;;;12.00;;
37069;SDS011;22984;48.862;9.320;2022-07-22T05:47:30;12.48;;;11.32;;
37069;SDS011;22984;48.862;9.320;2022-07-22T05:49:56;14.82;;;11.55;;
37069;SDS011;22984;48.862;9.320;2022-07-22T05:52:22;12.80;;;11.70;;
37069;SDS011;22984;48.862;9.320;2022-07-22T05:54:48;13.17;;;12.07;;
37069;SDS011;22984;48.862;9.320;2022-07-22T05:57:14;13.50;;;12.23;;
37069;SDS011;22984;48.862;9.320;2022-07-22T05:59:40;15.10;;;12.13;;
37069;SDS011;22984;48.862;9.320;2022-07-22T06:02:06;14.40;;;12.05;;
37069;SDS011;22984;48.862;9.320;2022-07-22T06:04:32;13.20;;;11.90;;
37069;SDS011;22984;48.862;9.320;2022-07-22T06:06:58;13.57;;;11.77;;
37069;SDS011;22984;48.862;9.320;2022-07-22T06:09:24;14.43;;;12.85;;
37069;SDS011;22984;48.862;9.320;2022-07-22T06:11:51;13.43;;;12.13;;
37069;SDS011;22984;48.862;9.320;2022-07-22T06:14:17;15.93;;;13.40;;
37069;SDS011;22984;48.862;9.320;2022-07-22T06:16:43;14.13;;;12.63;;
37069;SDS011;22984;48.862;9.320;2022-07-22T06:19:09;13.13;;;12.02;;
37069;SDS011;22984;48.862;9.320;2022-07-22T06:21:35;13.40;;;12.20;;
37069;SDS011;22984;48.862;9.320;2022-07-22T06:24:03;13.87;;;11.90;;
37069;SDS011;22984;48.862;9.320;2022-07-22T06:26:30;13.50;;;12.15;;
37069;SDS011;22984;48.862;9.320;2022-07-22T06:28:56;12.85;;;11.57;;
37069;SDS011;22984;48.862;9.320;2022-07-22T06:31:22;12.88;;;11.68;;
37069;SDS011;22984;48.862;9.320;2022-07-22T06:33:48;12.18;;;11.05;;
37069;SDS011;22984;48.862;9.320;2022-07-22T06:36:14;13.70;;;11.60;;
37069;SDS011;22984;48.862;9.320;2022-07-22T06:38:42;12.57;;;11.38;;
37069;SDS011;22984;48.862;9.320;2022-07-22T06:41:08;12.40;;;11.18;;
37069;SDS011;22984;48.862;9.320;2022-07-22T06:43:35;13.25;;;11.18;;
37069;SDS011;22984;48.862;9.320;2022-07-22T06:46:01;12.23;;;11.20;;
37069;SDS011;22984;48.862;9.320;2022-07-22T06:48:27;12.88;;;10.82;;
37069;SDS011;22984;48.862;9.320;2022-07-22T06:50:53;13.47;;;11.77;;
37069;SDS011;22984;48.862;9.320;2022-07-22T06:53:19;11.83;;;10.73;;
37069;SDS011;22984;48.862;9.320;2022-07-22T06:55:46;12.00;;;10.80;;
37069;SDS011;22984;48.862;9.320;2022-07-22T06:58:12;12.50;;;11.32;;
37069;SDS011;22984;48.862;9.320;2022-07-22T07:00:38;11.75;;;10.75;;
37069;SDS011;22984;48.862;9.320;2022-07-22T07:03:04;17.10;;;11.18;;
37069;SDS011;22984;48.862;9.320;2022-07-22T07:05:30;11.90;;;11.00;;
37069;SDS011;22984;48.862;9.320;2022-07-22T07:07:56;12.43;;;11.13;;
37069;SDS011;22984;48.862;9.320;2022-07-22T07:10:22;12.65;;;11.32;;
37069;SDS011;22984;48.862;9.320;2022-07-22T07:12:48;14.90;;;11.05;;
37069;SDS011;22984;48.862;9.320;2022-07-22T07:15:14;12.80;;;10.05;;
37069;SDS011;22984;48.862;9.320;2022-07-22T07:17:40;13.48;;;10.88;;
37069;SDS011;22984;48.862;9.320;2022-07-22T07:20:06;11.15;;;10.02;;
37069;SDS011;22984;48.862;9.320;2022-07-22T07:22:33;11.35;;;10.35;;
37069;SDS011;22984;48.862;9.320;2022-07-22T07:25:06;15.23;;;9.60;;
37069;SDS011;22984;48.862;9.320;2022-07-22T07:27:32;13.23;;;10.15;;
37069;SDS011;22984;48.862;9.320;2022-07-22T07:29:58;11.80;;;10.10;;
37069;SDS011;22984;48.862;9.320;2022-07-22T07:32:25;10.20;;;9.23;;
37069;SDS011;22984;48.862;9.320;2022-07-22T07:34:51;10.82;;;10.02;;
37069;SDS011;22984;48.862;9.320;2022-07-22T07:37:17;10.55;;;9.60;;
37069;SDS011;22984;48.862;9.320;2022-07-22T07:39:43;10.13;;;9.00;;
37069;SDS011;22984;48.862;9.320;2022-07-22T07:42:09;10.45;;;9.32;;
37069;SDS011;22984;48.862;9.320;2022-07-22T07:44:35;10.38;;;9.38;;
37069;SDS011;22984;48.862;9.320;2022-07-22T07:47:01;10.98;;;8.73;;
37069;SDS011;22984;48.862;9.320;2022-07-22T07:49:28;9.80;;;8.90;;
37069;SDS011;22984;48.862;9.320;2022-07-22T07:51:54;15.73;;;9.17;;
37069;SDS011;22984;48.862;9.320;2022-07-22T07:54:20;10.90;;;9.80;;
37069;SDS011;22984;48.862;9.320;2022-07-22T07:56:46;10.80;;;9.70;;
37069;SDS011;22984;48.862;9.320;2022-07-22T07:59:13;9.67;;;8.63;;
37069;SDS011;22984;48.862;9.320;2022-07-22T08:01:39;10.00;;;9.02;;
37069;SDS011;22984;48.862;9.320;2022-07-22T08:04:05;9.15;;;8.25;;
37069;SDS011;22984;48.862;9.320;2022-07-22T08:06:31;13.57;;;9.00;;
37069;SDS011;22984;48.862;9.320;2022-07-22T08:08:57;10.02;;;8.40;;
37069;SDS011;22984;48.862;9.320;2022-07-22T08:11:23;9.77;;;8.83;;
37069;SDS011;22984;48.862;9.320;2022-07-22T08:13:49;10.32;;;9.25;;
37069;SDS011;22984;48.862;9.320;2022-07-22T08:16:15;9.65;;;8.68;;
37069;SDS011;22984;48.862;9.320;2022-07-22T08:18:42;11.55;;;8.85;;
37069;SDS011;22984;48.862;9.320;2022-07-22T08:21:08;9.32;;;8.48;;
37069;SDS011;22984;48.862;9.320;2022-07-22T08:23:34;9.38;;;8.48;;
37069;SDS011;22984;48.862;9.320;2022-07-22T08:26:00;12.55;;;9.20;;
37069;SDS011;22984;48.862;9.320;2022-07-22T08:28:26;8.40;;;7.70;;
37069;SDS011;22984;48.862;9.320;2022-07-22T08:30:52;10.05;;;8.63;;
37069;SDS011;22984;48.862;9.320;2022-07-22T08:33:19;8.70;;;7.80;;
37069;SDS011;22984;48.862;9.320;2022-07-22T08:35:45;9.05;;;7.80;;
37069;SDS011;22984;48.862;9.320;2022-07-22T08:38:11;9.38;;;8.57;;
37069;SDS011;22984;48.862;9.320;2022-07-22T08:40:37;9.43;;;8.60;;
37069;SDS011;22984;48.862;9.320;2022-07-22T08:43:03;8.55;;;7.72;;
37069;SDS011;22984;48.862;9.320;2022-07-22T08:45:30;12.95;;;8.88;;
37069;SDS011;22984;48.862;9.320;2022-07-22T08:47:56;8.90;;;8.20;;
37069;SDS011;22984;48.862;9.320;2022-07-22T08:50:24;10.25;;;8.13;;
37069;SDS011;22984;48.862;9.320;2022-07-22T08:52:50;9.38;;;8.55;;
37069;SDS011;22984;48.862;9.320;2022-07-22T08:55:16;9.65;;;7.75;;
37069;SDS011;22984;48.862;9.320;2022-07-22T08:57:46;8.70;;;8.03;;
37069;SDS011;22984;48.862;9.320;2022-07-22T09:00:14;8.82;;;8.13;;
37069;SDS011;22984;48.862;9.320;2022-07-22T09:02:41;9.52;;;8.52;;
37069;SDS011;22984;48.862;9.320;2022-07-22T09:05:09;9.80;;;8.27;;
37069;SDS011;22984;48.862;9.320;2022-07-22T09:07:39;9.23;;;8.32;;
37069;SDS011;22984;48.862;9.320;2022-07-22T09:10:06;11.75;;;8.32;;
37069;SDS011;22984;48.862;9.320;2022-07-22T09:12:33;9.23;;;8.10;;
37069;SDS011;22984;48.862;9.320;2022-07-22T09:15:00;11.77;;;8.63;;
37069;SDS011;22984;48.862;9.320;2022-07-22T09:19:57;10.13;;;7.93;;
37069;SDS011;22984;48.862;9.320;2022-07-22T09:22:33;8.43;;;7.75;;
37069;SDS011;22984;48.862;9.320;2022-07-22T09:27:45;9.20;;;8.30;;
37069;SDS011;22984;48.862;9.320;2022-07-22T09:30:11;7.90;;;7.13;;
37069;SDS011;22984;48.862;9.320;2022-07-22T09:32:39;9.93;;;8.90;;
37069;SDS011;22984;48.862;9.320;2022-07-22T09:35:06;14.30;;;7.82;;
37069;SDS011;22984;48.862;9.320;2022-07-22T09:37:32;10.40;;;7.75;;
37069;SDS011;22984;48.862;9.320;2022-07-22T09:40:12;7.53;;;7.03;;
37069;SDS011;22984;48.862;9.320;2022-07-22T09:42:48;7.53;;;6.90;;
37069;SDS011;22984;48.862;9.320;2022-07-22T09:45:15;9.13;;;7.00;;
37069;SDS011;22984;48.862;9.320;2022-07-22T09:47:42;7.93;;;6.90;;
37069;SDS011;22984;48.862;9.320;2022-07-22T09:50:13;8.00;;;7.20;;
37069;SDS011;22984;48.862;9.320;2022-07-22T09:52:39;8.27;;;7.68;;
37069;SDS011;22984;48.862;9.320;2022-07-22T09:55:07;8.13;;;7.43;;
37069;SDS011;22984;48.862;9.320;2022-07-22T09:57:33;10.67;;;7.87;;
37069;SDS011;22984;48.862;9.320;2022-07-22T09:59:59;7.80;;;7.18;;
37069;SDS011;22984;48.862;9.320;2022-07-22T10:02:25;9.60;;;6.88;;
37069;SDS011;22984;48.862;9.320;2022-07-22T10:04:53;8.60;;;6.90;;
37069;SDS011;22984;48.862;9.320;2022-07-22T10:07:20;10.50;;;7.15;;
37069;SDS011;22984;48.862;9.320;2022-07-22T10:09:47;7.32;;;6.55;;
37069;SDS011;22984;48.862;9.320;2022-07-22T10:12:13;7.10;;;6.50;;
37069;SDS011;22984;48.862;9.320;2022-07-22T10:14:41;7.25;;;6.57;;
37069;SDS011;22984;48.862;9.320;2022-07-22T10:17:07;8.20;;;6.40;;
37069;SDS011;22984;48.862;9.320;2022-07-22T10:19:34;7.20;;;6.70;;
37069;SDS011;22984;48.862;9.320;2022-07-22T10:22:00;7.80;;;7.00;;
37069;SDS011;22984;48.862;9.320;2022-07-22T10:24:26;10.00;;;6.35;;
37069;SDS011;22984;48.862;9.320;2022-07-22T10:26:53;7.47;;;5.65;;
37069;SDS011;22984;48.862;9.320;2022-07-22T10:29:27;6.68;;;5.90;;
37069;SDS011;22984;48.862;9.320;2022-07-22T10:34:38;6.03;;;5.38;;
37069;SDS011;22984;48.862;9.320;2022-07-22T10:37:06;5.55;;;5.22;;
37069;SDS011;22984;48.862;9.320;2022-07-22T10:40:24;5.10;;;4.80;;
37069;SDS011;22984;48.862;9.320;2022-07-22T10:45:24;5.47;;;4.43;;
37069;SDS011;22984;48.862;9.320;2022-07-22T10:47:54;5.00;;;4.50;;
37069;SDS011;22984;48.862;9.320;2022-07-22T10:53:11;5.65;;;4.63;;
37069;SDS011;22984;48.862;9.320;2022-07-22T10:55:39;4.37;;;4.00;;
37069;SDS011;22984;48.862;9.320;2022-07-22T11:00:49;4.32;;;3.85;;
37069;SDS011;22984;48.862;9.320;2022-07-22T11:03:25;4.78;;;3.75;;
37069;SDS011;22984;48.862;9.320;2022-07-22T11:05:51;7.60;;;4.05;;
37069;SDS011;22984;48.862;9.320;2022-07-22T11:08:17;6.00;;;4.50;;
37069;SDS011;22984;48.862;9.320;2022-07-22T11:10:49;4.15;;;3.85;;
37069;SDS011;22984;48.862;9.320;2022-07-22T11:13:37;4.05;;;3.75;;
37069;SDS011;22984;48.862;9.320;2022-07-22T11:16:19;4.30;;;3.90;;
37069;SDS011;22984;48.862;9.320;2022-07-22T11:18:46;4.13;;;3.87;;
37069;SDS011;22984;48.862;9.320;2022-07-22T11:21:16;3.92;;;3.60;;
37069;SDS011;22984;48.862;9.320;2022-07-22T11:23:43;3.67;;;3.38;;
37069;SDS011;22984;48.862;9.320;2022-07-22T11:26:10;4.00;;;3.80;;
37069;SDS011;22984;48.862;9.320;2022-07-22T11:28:42;6.10;;;3.95;;
37069;SDS011;22984;48.862;9.320;2022-07-22T11:31:09;6.65;;;3.47;;
37069;SDS011;22984;48.862;9.320;2022-07-22T11:33:35;3.63;;;3.42;;
37069;SDS011;22984;48.862;9.320;2022-07-22T11:36:04;3.43;;;3.13;;
37069;SDS011;22984;48.862;9.320;2022-07-22T11:41:06;4.15;;;3.75;;
37069;SDS011;22984;48.862;9.320;2022-07-22T11:43:39;3.50;;;3.20;;
37069;SDS011;22984;48.862;9.320;2022-07-22T11:46:05;3.72;;;3.42;;
37069;SDS011;22984;48.862;9.320;2022-07-22T11:48:31;6.30;;;3.80;;
37069;SDS011;22984;48.862;9.320;2022-07-22T11:51:04;3.83;;;3.58;;
37069;SDS011;22984;48.862;9.320;2022-07-22T11:53:30;5.03;;;3.22;;
37069;SDS011;22984;48.862;9.320;2022-07-22T11:55:57;3.53;;;3.22;;
37069;SDS011;22984;48.862;9.320;2022-07-22T12:01:30;4.65;;;3.90;;
37069;SDS011;22984;48.862;9.320;2022-07-22T12:04:00;4.15;;;3.63;;
37069;SDS011;22984;48.862;9.320;2022-07-22T12:06:27;4.57;;;3.80;;
37069;SDS011;22984;48.862;9.320;2022-07-22T12:08:54;7.05;;;3.95;;
37069;SDS011;22984;48.862;9.320;2022-07-22T12:11:21;5.22;;;3.53;;
37069;SDS011;22984;48.862;9.320;2022-07-22T12:13:49;3.53;;;3.30;;
37069;SDS011;22984;48.862;9.320;2022-07-22T12:18:44;4.13;;;3.72;;
37069;SDS011;22984;48.862;9.320;2022-07-22T12:21:16;3.92;;;3.63;;
37069;SDS011;22984;48.862;9.320;2022-07-22T12:23:48;3.88;;;3.58;;
37069;SDS011;22984;48.862;9.320;2022-07-22T12:26:15;4.60;;;3.65;;
37069;SDS011;22984;48.862;9.320;2022-07-22T12:28:41;6.40;;;4.10;;
37069;SDS011;22984;48.862;9.320;2022-07-22T12:31:07;4.53;;;3.80;;
37069;SDS011;22984;48.862;9.320;2022-07-22T12:33:33;5.90;;;4.10;;
37069;SDS011;22984;48.862;9.320;2022-07-22T12:36:01;4.03;;;3.67;;
37069;SDS011;22984;48.862;9.320;2022-07-22T12:38:27;3.90;;;3.60;;
37069;SDS011;22984;48.862;9.320;2022-07-22T12:40:54;4.10;;;3.70;;
37069;SDS011;22984;48.862;9.320;2022-07-22T12:43:23;3.95;;;3.40;;
37069;SDS011;22984;48.862;9.320;2022-07-22T12:45:50;4.50;;;3.53;;
37069;SDS011;22984;48.862;9.320;2022-07-22T12:48:16;5.13;;;3.47;;
37069;SDS011;22984;48.862;9.320;2022-07-22T12:50:56;5.50;;;3.70;;
37069;SDS011;22984;48.862;9.320;2022-07-22T12:53:23;3.65;;;3.38;;
37069;SDS011;22984;48.862;9.320;2022-07-22T12:55:50;4.15;;;3.65;;
37069;SDS011;22984;48.862;9.320;2022-07-22T12:58:17;3.83;;;3.50;;
37069;SDS011;22984;48.862;9.320;2022-07-22T13:00:47;4.27;;;3.87;;
37069;SDS011;22984;48.862;9.320;2022-07-22T13:03:13;3.92;;;3.30;;
37069;SDS011;22984;48.862;9.320;2022-07-22T13:05:39;3.58;;;3.38;;
37069;SDS011;22984;48.862;9.320;2022-07-22T13:08:06;4.05;;;3.67;;
37069;SDS011;22984;48.862;9.320;2022-07-22T13:10:32;4.45;;;3.58;;
37069;SDS011;22984;48.862;9.320;2022-07-22T13:12:58;4.22;;;3.80;;
37069;SDS011;22984;48.862;9.320;2022-07-22T13:15:24;4.47;;;4.10;;
37069;SDS011;22984;48.862;9.320;2022-07-22T13:17:50;4.93;;;3.70;;
37069;SDS011;22984;48.862;9.320;2022-07-22T13:20:17;3.60;;;3.40;;
37069;SDS011;22984;48.862;9.320;2022-07-22T13:22:44;5.45;;;3.65;;
37069;SDS011;22984;48.862;9.320;2022-07-22T13:25:10;5.73;;;3.43;;
37069;SDS011;22984;48.862;9.320;2022-07-22T13:27:36;3.78;;;3.47;;
37069;SDS011;22984;48.862;9.320;2022-07-22T13:30:02;3.72;;;3.40;;
37069;SDS011;22984;48.862;9.320;2022-07-22T13:32:29;4.33;;;3.40;;
37069;SDS011;22984;48.862;9.320;2022-07-22T13:34:55;3.77;;;3.37;;
37069;SDS011;22984;48.862;9.320;2022-07-22T13:37:21;3.80;;;3.50;;
37069;SDS011;22984;48.862;9.320;2022-07-22T13:39:48;3.63;;;3.33;;
37069;SDS011;22984;48.862;9.320;2022-07-22T13:42:14;4.80;;;3.35;;
37069;SDS011;22984;48.862;9.320;2022-07-22T13:44:44;4.78;;;3.60;;
37069;SDS011;22984;48.862;9.320;2022-07-22T13:47:10;3.70;;;3.40;;
37069;SDS011;22984;48.862;9.320;2022-07-22T13:49:36;4.25;;;3.38;;
37069;SDS011;22984;48.862;9.320;2022-07-22T13:52:03;3.17;;;2.97;;
37069;SDS011;22984;48.862;9.320;2022-07-22T13:54:30;4.88;;;3.55;;
37069;SDS011;22984;48.862;9.320;2022-07-22T13:56:56;3.42;;;3.13;;
37069;SDS011;22984;48.862;9.320;2022-07-22T13:59:22;3.53;;;3.28;;
37069;SDS011;22984;48.862;9.320;2022-07-22T14:01:49;3.53;;;3.33;;
37069;SDS011;22984;48.862;9.320;2022-07-22T14:04:15;3.47;;;3.28;;
37069;SDS011;22984;48.862;9.320;2022-07-22T14:06:41;3.73;;;3.33;;
37069;SDS011;22984;48.862;9.320;2022-07-22T14:09:07;3.70;;;3.20;;
37069;SDS011;22984;48.862;9.320;2022-07-22T14:11:33;3.08;;;2.92;;
37069;SDS011;22984;48.862;9.320;2022-07-22T14:13:59;4.50;;;3.20;;
37069;SDS011;22984;48.862;9.320;2022-07-22T14:16:25;3.10;;;2.90;;
37069;SDS011;22984;48.862;9.320;2022-07-22T14:19:04;3.15;;;3.00;;
37069;SDS011;22984;48.862;9.320;2022-07-22T14:21:30;3.60;;;3.28;;
37069;SDS011;22984;48.862;9.320;2022-07-22T14:23:56;3.53;;;3.22;;
37069;SDS011;22984;48.862;9.320;2022-07-22T14:26:22;4.85;;;2.97;;
37069;SDS011;22984;48.862;9.320;2022-07-22T14:28:49;4.68;;;3.28;;
37069;SDS011;22984;48.862;9.320;2022-07-22T14:31:15;3.50;;;3.30;;
37069;SDS011;22984;48.862;9.320;2022-07-22T14:33:41;3.83;;;3.42;;
37069;SDS011;22984;48.862;9.320;2022-07-22T14:36:07;5.38;;;3.15;;
37069;SDS011;22984;48.862;9.320;2022-07-22T14:38:33;8.23;;;3.45;;
37069;SDS011;22984;48.862;9.320;2022-07-22T14:40:59;3.38;;;3.10;;
37069;SDS011;22984;48.862;9.320;2022-07-22T14:43:25;4.78;;;3.25;;
37069;SDS011;22984;48.862;9.320;2022-07-22T14:45:51;3.60;;;3.30;;
37069;SDS011;22984;48.862;9.320;2022-07-22T14:48:17;2.90;;;2.80;;
37069;SDS011;22984;48.862;9.320;2022-07-22T14:50:43;3.37;;;3.07;;
37069;SDS011;22984;48.862;9.320;2022-07-22T14:53:11;3.63;;;3.22;;
37069;SDS011;22984;48.862;9.320;2022-07-22T14:55:37;4.18;;;3.83;;
37069;SDS011;22984;48.862;9.320;2022-07-22T14:58:03;5.68;;;3.40;;
37069;SDS011;22984;48.862;9.320;2022-07-22T15:00:29;4.13;;;3.33;;